Terminal Aerodrome Forecast
Issued by NWS Cleveland, OH

Home | Current Version | Previous Version | Text Only | Print | Product List | Glossary Off
Versions: 1 2 3 4 5 6 7 8 9 10 11 12 13 14 15

000
FTUS41 KCLE 161502 AAA
TAFYNG
TAF AMD
KYNG 161502Z 1615/1712 28010G15KT P6SM -SHSN OVC035
      TEMPO 1615/1618 3SM -SHSN OVC015
     FM161800 30010KT P6SM SCT025 OVC035
     FM170400 VRB03KT P6SM OVC100=

USA.gov is the U.S. government's official web portal to all federal, state and local government web resources and services.